Dobrynya Nikitich — ERQM — position and weather

sailwx.info

Track history (hours):
 
Tides and Currents Weather Stations Pressure Air Temp Water Temp Dewpoint Dewpoint Depression Visibility Wind Speed Wind Dir Waves Ship Positions

Dobrynya Nikitich

Last reported at 2017-Dec-15 17:53 UTC. Time now 2017-Dec-18 01:23 UTC.
Position N 43°22' E 028°29'.

Length 138 m; draft 2.7 m.

Type: Cargo ship. MMSI: 214181713.

Date/timePositionNaut miles runAvg speedWind from/ knotsBaromVisibWave heightAir tempDewpointWater temp
2017-Dec-15 17:53N 43°22' E 028°29'2 6.4
2017-Dec-15 17:30N 43°23' E 028°32'3 6.9
2017-Dec-15 17:00N 43°26' E 028°35'3 6.9
2017-Dec-15 16:30N 43°28' E 028°39'3 6.7
2017-Dec-15 16:00N 43°30' E 028°42'4 7.1
2017-Dec-15 15:30N 43°32' E 028°46'4 7.5
2017-Dec-15 15:00N 43°35' E 028°50'4 7.1
2017-Dec-15 14:30N 43°39' E 028°50'4 7.0
2017-Dec-15 14:00N 43°42' E 028°49'4 7.1
2017-Dec-15 13:30N 43°46' E 028°49'4 7.3
2017-Dec-15 13:00N 43°49' E 028°49'4 7.1
2017-Dec-15 12:30N 43°53' E 028°49'4 7.4
2017-Dec-15 12:00N 43°57' E 028°49'3 7.0
2017-Dec-15 11:30N 43°60' E 028°47'4 7.6
2017-Dec-15 11:00N 44°03' E 028°44'4 7.6
2017-Dec-15 10:30N 44°06' E 028°42'3 5.5
2017-Dec-15 10:00N 44°09' E 028°40'0 0.9
2017-Dec-15 09:30N 44°08' E 028°39'0 0.0
2017-Dec-15 08:57N 44°08' E 028°39'0 0.0
2017-Dec-15 08:30N 44°08' E 028°39'0 0.0
2017-Dec-15 08:00N 44°08' E 028°39'0 0.0
2017-Dec-15 07:30N 44°08' E 028°39'0 0.0
2017-Dec-15 07:00N 44°08' E 028°39'0 0.0
2017-Dec-15 06:30N 44°08' E 028°39'0 0.0
2017-Dec-15 06:00N 44°08' E 028°39'0 0.0
2017-Dec-15 05:30N 44°08' E 028°39'0 0.0
2017-Dec-15 05:00N 44°08' E 028°39'0 0.0
2017-Dec-15 04:30N 44°08' E 028°39'0 0.0
2017-Dec-15 04:00N 44°08' E 028°39'0 0.0
2017-Dec-15 02:30N 44°08' E 028°39'0 0.0
2017-Dec-15 01:00N 44°08' E 028°39'0 0.0
2017-Dec-15 00:30N 44°08' E 028°39'0 0.0
2017-Dec-14 18:30N 44°08' E 028°39'0 0.0
2017-Dec-14 17:57N 44°08' E 028°39'0 0.0
2017-Dec-14 17:30N 44°08' E 028°39'0 0.0
2017-Dec-14 17:00N 44°08' E 028°39'0 0.3
2017-Dec-14 16:30N 44°08' E 028°39'1 2.3
2017-Dec-14 16:00N 44°08' E 028°41'5 5.2
2017-Dec-14 15:00N 44°06' E 028°47'4 7.4
2017-Dec-14 14:30N 44°07' E 028°52'4 8.0
2017-Dec-14 14:00N 44°09' E 028°57'4 8.0
2017-Dec-14 13:30N 44°12' E 029°01'4 7.8
2017-Dec-14 13:00N 44°13' E 029°06'4 8.1
2017-Dec-14 12:30N 44°14' E 029°12'315 6.8
2017-Dec-12 13:49N 45°11' E 036°28'2 5.8
2017-Dec-12 13:31N 45°13' E 036°28'3 5.1
2017-Dec-12 13:00N 45°16' E 036°28'2 4.6
2017-Dec-12 12:30N 45°18' E 036°29'3 5.0
2017-Dec-12 11:59N 45°19' E 036°32'3 5.4
2017-Dec-12 11:30N 45°20' E 036°36'2 4.9
2017-Dec-12 11:00N 45°21' E 036°39'3 5.5
2017-Dec-12 10:31N 45°24' E 036°40'3 5.1
2017-Dec-12 10:00N 45°26' E 036°40'1 1.7
2017-Dec-12 09:31N 45°27' E 036°40'2 3.7
2017-Dec-12 09:00N 45°28' E 036°38'1 2.2
2017-Dec-12 08:28N 45°29' E 036°37'0 0.0
2017-Dec-11 23:16N 45°29' E 036°37'0 0.0
2017-Dec-11 22:40N 45°29' E 036°37'0 0.0
2017-Dec-11 20:40N 45°29' E 036°37'0 0.0
2017-Dec-11 20:19N 45°29' E 036°37'0 0.0
2017-Dec-11 17:37N 45°29' E 036°37'0 0.0
2017-Dec-11 17:19N 45°29' E 036°37'0 0.0
2017-Dec-11 16:58N 45°29' E 036°37'0 0.0
2017-Dec-11 16:28N 45°29' E 036°37'0 0.0
2017-Dec-11 15:37N 45°29' E 036°37'0 0.0
2017-Dec-11 15:25N 45°29' E 036°37'0 0.0
2017-Dec-11 12:43N 45°29' E 036°37'0 0.0
2017-Dec-11 11:25N 45°29' E 036°37'0 0.0
2017-Dec-11 09:07N 45°29' E 036°37'0 0.1
2017-Dec-11 08:58N 45°29' E 036°37'0 0.0
2017-Dec-11 08:25N 45°29' E 036°37'0 0.0
2017-Dec-11 07:58N 45°29' E 036°37'0 0.0
2017-Dec-11 07:25N 45°29' E 036°37'0 0.0
2017-Dec-11 06:58N 45°29' E 036°37'0 0.0
2017-Dec-11 06:28N 45°29' E 036°37'0 0.0
2017-Dec-11 05:52N 45°29' E 036°37'0 0.1
2017-Dec-11 05:28N 45°29' E 036°37'0 0.0
2017-Dec-11 04:58N 45°29' E 036°37'0 0.0
2017-Dec-11 04:28N 45°29' E 036°37'0 0.1
2017-Dec-11 03:52N 45°29' E 036°37'0 0.0
2017-Dec-10 18:19N 45°29' E 036°37'0 0.0
2017-Dec-10 15:46N 45°29' E 036°37'0 0.0
2017-Dec-10 15:28N 45°29' E 036°37'0 0.0
2017-Dec-10 14:58N 45°29' E 036°37'0 0.1
2017-Dec-10 14:30N 45°29' E 036°37'0 0.0
2017-Dec-10 14:00N 45°29' E 036°37'0 0.0
2017-Dec-10 13:30N 45°29' E 036°37'0 0.0
2017-Dec-10 13:00N 45°29' E 036°37'0 0.0
2017-Dec-10 12:30N 45°29' E 036°37'0 0.0
2017-Dec-10 12:00N 45°29' E 036°37'0 0.0
2017-Dec-10 11:30N 45°29' E 036°37'0 0.0
2017-Dec-10 11:00N 45°29' E 036°37'0 0.0
2017-Dec-10 10:30N 45°29' E 036°37'0 0.0
2017-Dec-10 10:00N 45°29' E 036°37'0 0.0
2017-Dec-10 09:30N 45°29' E 036°37'0 0.0
2017-Dec-10 08:57N 45°29' E 036°37'0 0.0
2017-Dec-10 08:30N 45°29' E 036°37'0 0.0
2017-Dec-10 08:00N 45°29' E 036°37'0 0.0
2017-Dec-10 07:27N 45°29' E 036°37'0 0.0
2017-Dec-10 07:00N 45°29' E 036°37'0 0.0
2017-Dec-10 06:24N 45°29' E 036°37'0 0.0
2017-Dec-10 06:00N 45°29' E 036°37'0 0.0
2017-Dec-10 05:30N 45°29' E 036°37'0 0.0
2017-Dec-10 05:00N 45°29' E 036°37'0 0.0
2017-Dec-10 04:30N 45°29' E 036°37'0 0.0
2017-Dec-10 03:51N 45°29' E 036°37'0 0.0
2017-Dec-10 03:30N 45°29' E 036°37'0 0.0
2017-Dec-10 03:00N 45°29' E 036°37'0 0.0
2017-Dec-10 02:30N 45°29' E 036°37'0 0.0
2017-Dec-10 02:00N 45°29' E 036°37'0 0.0
2017-Dec-10 01:30N 45°29' E 036°37'0 0.0
2017-Dec-10 00:54N 45°29' E 036°37'0 0.0
2017-Dec-10 00:27N 45°29' E 036°37'0 0.0
2017-Dec-09 23:48N 45°29' E 036°37'0 0.0
2017-Dec-09 23:30N 45°29' E 036°37'0 0.0
2017-Dec-09 22:57N 45°29' E 036°37'0 0.0
2017-Dec-09 22:30N 45°29' E 036°37'0 0.0
2017-Dec-09 15:33N 45°29' E 036°37'0 0.0
2017-Dec-09 15:06N 45°29' E 036°37'0 0.0
2017-Dec-09 13:57N 45°29' E 036°37'0 0.0
2017-Dec-09 13:27N 45°29' E 036°37'0 0.0
2017-Dec-09 12:51N 45°29' E 036°37'0 0.0
2017-Dec-09 12:24N 45°29' E 036°37'0 0.0
2017-Dec-09 12:00N 45°29' E 036°37'0 0.0
2017-Dec-09 11:27N 45°29' E 036°37'0 0.0
2017-Dec-09 10:57N 45°29' E 036°37'0 0.0
2017-Dec-09 10:30N 45°29' E 036°37'0 0.0
2017-Dec-09 09:48N 45°29' E 036°37'0 0.0
2017-Dec-09 07:24N 45°29' E 036°37'0 0.0
2017-Dec-09 06:51N 45°29' E 036°37'0 0.0
2017-Dec-08 23:53N 45°29' E 036°37'0 0.0
2017-Dec-08 22:47N 45°29' E 036°37'0 0.0
2017-Dec-08 22:26N 45°29' E 036°37'0 0.0
2017-Dec-08 21:53N 45°29' E 036°37'0 0.1
2017-Dec-08 21:26N 45°29' E 036°37'0 0.0
2017-Dec-08 20:59N 45°29' E 036°37'0 0.0
2017-Dec-08 20:29N 45°29' E 036°37'0 0.0
2017-Dec-08 19:59N 45°29' E 036°37'0 0.0
2017-Dec-08 19:29N 45°29' E 036°37'0 0.0
2017-Dec-08 12:59N 45°29' E 036°37'0 0.0
2017-Dec-08 10:02N 45°29' E 036°37'0 0.0
2017-Dec-08 07:05N 45°29' E 036°37'0 0.0
2017-Dec-08 06:50N 45°29' E 036°37'0 0.1
2017-Dec-08 06:29N 45°29' E 036°37'2 4.3
2017-Dec-08 06:00N 45°30' E 036°40'  
Track history (hours):
 
Tides and Currents Weather Stations Pressure Air Temp Water Temp Dewpoint Dewpoint Depression Visibility Wind Speed Wind Dir Waves Ship Positions

Dobrynya Nikitich

Last reported at 2017-Dec-15 17:53 UTC. Time now 2017-Dec-18 01:23 UTC.
Position N 43°22' E 028°29'.

Length 138 m; draft 2.7 m.

Type: Cargo ship. MMSI: 214181713.

Date/timePositionNaut miles runAvg speedWind from/ knotsBaromVisibWave heightAir tempDewpointWater temp
2017-Dec-15 17:53N 43°22' E 028°29'2 6.4
2017-Dec-15 17:30N 43°23' E 028°32'3 6.9
2017-Dec-15 17:00N 43°26' E 028°35'3 6.9
2017-Dec-15 16:30N 43°28' E 028°39'3 6.7
2017-Dec-15 16:00N 43°30' E 028°42'4 7.1
2017-Dec-15 15:30N 43°32' E 028°46'4 7.5
2017-Dec-15 15:00N 43°35' E 028°50'4 7.1
2017-Dec-15 14:30N 43°39' E 028°50'4 7.0
2017-Dec-15 14:00N 43°42' E 028°49'4 7.1
2017-Dec-15 13:30N 43°46' E 028°49'4 7.3
2017-Dec-15 13:00N 43°49' E 028°49'4 7.1
2017-Dec-15 12:30N 43°53' E 028°49'4 7.4
2017-Dec-15 12:00N 43°57' E 028°49'3 7.0
2017-Dec-15 11:30N 43°60' E 028°47'4 7.6
2017-Dec-15 11:00N 44°03' E 028°44'4 7.6
2017-Dec-15 10:30N 44°06' E 028°42'3 5.5
2017-Dec-15 10:00N 44°09' E 028°40'0 0.9
2017-Dec-15 09:30N 44°08' E 028°39'0 0.0
2017-Dec-15 08:57N 44°08' E 028°39'0 0.0
2017-Dec-15 08:30N 44°08' E 028°39'0 0.0
2017-Dec-15 08:00N 44°08' E 028°39'0 0.0
2017-Dec-15 07:30N 44°08' E 028°39'0 0.0
2017-Dec-15 07:00N 44°08' E 028°39'0 0.0
2017-Dec-15 06:30N 44°08' E 028°39'0 0.0
2017-Dec-15 06:00N 44°08' E 028°39'0 0.0
2017-Dec-15 05:30N 44°08' E 028°39'0 0.0
2017-Dec-15 05:00N 44°08' E 028°39'0 0.0
2017-Dec-15 04:30N 44°08' E 028°39'0 0.0
2017-Dec-15 04:00N 44°08' E 028°39'0 0.0
2017-Dec-15 02:30N 44°08' E 028°39'0 0.0
2017-Dec-15 01:00N 44°08' E 028°39'0 0.0
2017-Dec-15 00:30N 44°08' E 028°39'0 0.0
2017-Dec-14 18:30N 44°08' E 028°39'0 0.0
2017-Dec-14 17:57N 44°08' E 028°39'0 0.0
2017-Dec-14 17:30N 44°08' E 028°39'0 0.0
2017-Dec-14 17:00N 44°08' E 028°39'0 0.3
2017-Dec-14 16:30N 44°08' E 028°39'1 2.3
2017-Dec-14 16:00N 44°08' E 028°41'5 5.2
2017-Dec-14 15:00N 44°06' E 028°47'4 7.4
2017-Dec-14 14:30N 44°07' E 028°52'4 8.0
2017-Dec-14 14:00N 44°09' E 028°57'4 8.0
2017-Dec-14 13:30N 44°12' E 029°01'4 7.8
2017-Dec-14 13:00N 44°13' E 029°06'4 8.1
2017-Dec-14 12:30N 44°14' E 029°12'315 6.8
2017-Dec-12 13:49N 45°11' E 036°28'2 5.8
2017-Dec-12 13:31N 45°13' E 036°28'3 5.1
2017-Dec-12 13:00N 45°16' E 036°28'2 4.6
2017-Dec-12 12:30N 45°18' E 036°29'3 5.0
2017-Dec-12 11:59N 45°19' E 036°32'3 5.4
2017-Dec-12 11:30N 45°20' E 036°36'2 4.9
2017-Dec-12 11:00N 45°21' E 036°39'3 5.5
2017-Dec-12 10:31N 45°24' E 036°40'3 5.1
2017-Dec-12 10:00N 45°26' E 036°40'1 1.7
2017-Dec-12 09:31N 45°27' E 036°40'2 3.7
2017-Dec-12 09:00N 45°28' E 036°38'1 2.2
2017-Dec-12 08:28N 45°29' E 036°37'0 0.0
2017-Dec-11 23:16N 45°29' E 036°37'0 0.0
2017-Dec-11 22:40N 45°29' E 036°37'0 0.0
2017-Dec-11 20:40N 45°29' E 036°37'0 0.0
2017-Dec-11 20:19N 45°29' E 036°37'0 0.0
2017-Dec-11 17:37N 45°29' E 036°37'0 0.0
2017-Dec-11 17:19N 45°29' E 036°37'0 0.0
2017-Dec-11 16:58N 45°29' E 036°37'0 0.0
2017-Dec-11 16:28N 45°29' E 036°37'0 0.0
2017-Dec-11 15:37N 45°29' E 036°37'0 0.0
2017-Dec-11 15:25N 45°29' E 036°37'0 0.0
2017-Dec-11 12:43N 45°29' E 036°37'0 0.0
2017-Dec-11 11:25N 45°29' E 036°37'0 0.0
2017-Dec-11 09:07N 45°29' E 036°37'0 0.1
2017-Dec-11 08:58N 45°29' E 036°37'0 0.0
2017-Dec-11 08:25N 45°29' E 036°37'0 0.0
2017-Dec-11 07:58N 45°29' E 036°37'0 0.0
2017-Dec-11 07:25N 45°29' E 036°37'0 0.0
2017-Dec-11 06:58N 45°29' E 036°37'0 0.0
2017-Dec-11 06:28N 45°29' E 036°37'0 0.0
2017-Dec-11 05:52N 45°29' E 036°37'0 0.1
2017-Dec-11 05:28N 45°29' E 036°37'0 0.0
2017-Dec-11 04:58N 45°29' E 036°37'0 0.0
2017-Dec-11 04:28N 45°29' E 036°37'0 0.1
2017-Dec-11 03:52N 45°29' E 036°37'0 0.0
2017-Dec-10 18:19N 45°29' E 036°37'0 0.0
2017-Dec-10 15:46N 45°29' E 036°37'0 0.0
2017-Dec-10 15:28N 45°29' E 036°37'0 0.0
2017-Dec-10 14:58N 45°29' E 036°37'0 0.1
2017-Dec-10 14:30N 45°29' E 036°37'0 0.0
2017-Dec-10 14:00N 45°29' E 036°37'0 0.0
2017-Dec-10 13:30N 45°29' E 036°37'0 0.0
2017-Dec-10 13:00N 45°29' E 036°37'0 0.0
2017-Dec-10 12:30N 45°29' E 036°37'0 0.0
2017-Dec-10 12:00N 45°29' E 036°37'0 0.0
2017-Dec-10 11:30N 45°29' E 036°37'0 0.0
2017-Dec-10 11:00N 45°29' E 036°37'0 0.0
2017-Dec-10 10:30N 45°29' E 036°37'0 0.0
2017-Dec-10 10:00N 45°29' E 036°37'0 0.0
2017-Dec-10 09:30N 45°29' E 036°37'0 0.0
2017-Dec-10 08:57N 45°29' E 036°37'0 0.0
2017-Dec-10 08:30N 45°29' E 036°37'0 0.0
2017-Dec-10 08:00N 45°29' E 036°37'0 0.0
2017-Dec-10 07:27N 45°29' E 036°37'0 0.0
2017-Dec-10 07:00N 45°29' E 036°37'0 0.0
2017-Dec-10 06:24N 45°29' E 036°37'0 0.0
2017-Dec-10 06:00N 45°29' E 036°37'0 0.0
2017-Dec-10 05:30N 45°29' E 036°37'0 0.0
2017-Dec-10 05:00N 45°29' E 036°37'0 0.0
2017-Dec-10 04:30N 45°29' E 036°37'0 0.0
2017-Dec-10 03:51N 45°29' E 036°37'0 0.0
2017-Dec-10 03:30N 45°29' E 036°37'0 0.0
2017-Dec-10 03:00N 45°29' E 036°37'0 0.0
2017-Dec-10 02:30N 45°29' E 036°37'0 0.0
2017-Dec-10 02:00N 45°29' E 036°37'0 0.0
2017-Dec-10 01:30N 45°29' E 036°37'0 0.0
2017-Dec-10 00:54N 45°29' E 036°37'0 0.0
2017-Dec-10 00:27N 45°29' E 036°37'0 0.0
2017-Dec-09 23:48N 45°29' E 036°37'0 0.0
2017-Dec-09 23:30N 45°29' E 036°37'0 0.0
2017-Dec-09 22:57N 45°29' E 036°37'0 0.0
2017-Dec-09 22:30N 45°29' E 036°37'0 0.0
2017-Dec-09 15:33N 45°29' E 036°37'0 0.0
2017-Dec-09 15:06N 45°29' E 036°37'0 0.0
2017-Dec-09 13:57N 45°29' E 036°37'0 0.0
2017-Dec-09 13:27N 45°29' E 036°37'0 0.0
2017-Dec-09 12:51N 45°29' E 036°37'0 0.0
2017-Dec-09 12:24N 45°29' E 036°37'0 0.0
2017-Dec-09 12:00N 45°29' E 036°37'0 0.0
2017-Dec-09 11:27N 45°29' E 036°37'0 0.0
2017-Dec-09 10:57N 45°29' E 036°37'0 0.0
2017-Dec-09 10:30N 45°29' E 036°37'0 0.0
2017-Dec-09 09:48N 45°29' E 036°37'0 0.0
2017-Dec-09 07:24N 45°29' E 036°37'0 0.0
2017-Dec-09 06:51N 45°29' E 036°37'0 0.0
2017-Dec-08 23:53N 45°29' E 036°37'0 0.0
2017-Dec-08 22:47N 45°29' E 036°37'0 0.0
2017-Dec-08 22:26N 45°29' E 036°37'0 0.0
2017-Dec-08 21:53N 45°29' E 036°37'0 0.1
2017-Dec-08 21:26N 45°29' E 036°37'0 0.0
2017-Dec-08 20:59N 45°29' E 036°37'0 0.0
2017-Dec-08 20:29N 45°29' E 036°37'0 0.0
2017-Dec-08 19:59N 45°29' E 036°37'0 0.0
2017-Dec-08 19:29N 45°29' E 036°37'0 0.0
2017-Dec-08 12:59N 45°29' E 036°37'0 0.0
2017-Dec-08 10:02N 45°29' E 036°37'0 0.0
2017-Dec-08 07:05N 45°29' E 036°37'0 0.0
2017-Dec-08 06:50N 45°29' E 036°37'0 0.1
2017-Dec-08 06:29N 45°29' E 036°37'2 4.3
2017-Dec-08 06:00N 45°30' E 036°40'  

Dump ship's entire track history